METAR v bližini

 

LJLJ - Ljubljana/Brnik, Slovenia
Oddaljenost od postaje: Z 41km
Podatki zajeti: 17/08/2018 13:30
Rahlo oblačno
Rahlo oblačno
 Veter iz smeri JV
Veter: JV 7 km/h, Sunek vetra: 26 km/h
Temperatura: 27°C
Toplotni indeks: 28°C
Rosišče: 17°C
Vlažnost: 54%
Tlak: 1016 hPa
Oblačnost: Rahlo oblačno
Vidljivost: 10 km
Podrobnosti o oblakih: Rahlo oblačno 1524 m
2018/08/17 11:30 LJLJ 171130Z 14004G14KT 9999 FEW050 27/17 Q1016 NOSIG
LJMB - Maribor, Slovenia
Oddaljenost od postaje: SV 63km
Podatki zajeti: 17/08/2018 13:30
Rahlo oblačno
Rahlo oblačno
 Veter iz smeri J
Veter: J 9 km/h
Temperatura: 27°C
Toplotni indeks: 27°C
Rosišče: 15°C
Vlažnost: 48%
Tlak: 1016 hPa
Oblačnost: Rahlo oblačno
Vidljivost: 10 km
Podrobnosti o oblakih: Rahlo oblačno 1402 m
2018/08/17 11:30 LJMB 171130Z 17005KT 120V250 9999 FEW046 27/15 Q1016
 
LJPZ - Portoroz, Slovenia
Oddaljenost od postaje: JZ 130km
Podatki zajeti: 17/08/2018 13:30
Rahlo oblačno
Rahlo oblačno
 Veter iz smeri JZ
Veter: JZ 13 km/h
Temperatura: 30°C
Toplotni indeks: 31°C
Rosišče: 18°C
Vlažnost: 49%
Tlak: 1014 hPa
Oblačnost: Rahlo oblačno
Vidljivost: 10 km
Podrobnosti o oblakih: Rahlo oblačno 1524 m
2018/08/17 11:30 LJPZ 171130Z 23007KT 9999 FEW050 30/18 Q1014
LJCE - Cerklje, Slovenia
Oddaljenost od postaje: VJV 49km
Podatki zajeti: 17/08/2018 13:30
Jasno
Jasno
 Veter iz smeri VSV
Veter: VSV 11 km/h
Temperatura: 28°C
Toplotni indeks: 28°C
Rosišče: 15°C
Vlažnost: 45%
Tlak: 1015 hPa
Stanje: Jasno
Vidljivost: večja od 10 km
2018/08/17 11:30 LJCE 171130Z 06006KT 350V140 CAVOK 28/15 Q1015 RMK BLU
 
LDZA - Zagreb/Pleso, Croatia
Oddaljenost od postaje: VJV 96km
Podatki zajeti: 17/08/2018 13:30
Rahlo oblačno
Rahlo oblačno
 Veter iz smeri spremenljiv
Veter: spremenljiv 7 km/h
Temperatura: 29°C
Toplotni indeks: 29°C
Rosišče: 16°C
Vlažnost: 45%
Tlak: 1015 hPa
Oblačnost: Rahlo oblačno
Vidljivost: 10 km
Podrobnosti o oblakih: Rahlo oblačno 1494 m
2018/08/17 11:30 LDZA 171130Z VRB04KT 9999 FEW049 29/16 Q1015 NOSIG
LDRI - Rijeka/Omisalj, Croatia
Oddaljenost od postaje: JJZ 109km
Podatki zajeti: 17/08/2018 13:30
Rahlo oblačno
Rahlo oblačno
 Veter iz smeri Z
Veter: Z 15 km/h
Temperatura: 29°C
Toplotni indeks: 29°C
Rosišče: 16°C
Vlažnost: 45%
Tlak: 1014 hPa
Oblačnost: Rahlo oblačno
Vidljivost: 10 km
Podrobnosti o oblakih: Rahlo oblačno 1524 m
2018/08/17 11:30 LDRI 171130Z 28008KT 9999 FEW050 29/16 Q1014
 
LDPL - Pula, Croatia
Oddaljenost od postaje: JJZ 164km
Podatki zajeti: 17/08/2018 13:30
Rahlo oblačno
Rahlo oblačno
 Veter iz smeri ZJZ
Veter: ZJZ 19 km/h
Temperatura: 30°C
Toplotni indeks: 30°C
Rosišče: 16°C
Vlažnost: 43%
Tlak: 1014 hPa
Oblačnost: Rahlo oblačno
Vidljivost: 10 km
Podrobnosti o oblakih: Rahlo oblačno 914 m
2018/08/17 11:30 LDPL 171130Z 24010KT 210V300 9999 FEW030 30/16 Q1014 NOSIG
LOWK - Klagenfurt(Civ/M, Austria
Oddaljenost od postaje: SZ 76km
Podatki zajeti: 17/08/2018 13:20
Rahlo oblačno
Rahlo oblačno
 Veter iz smeri spremenljiv
Veter: spremenljiv 6 km/h
Temperatura: 27°C
Rosišče: 11°C
Vlažnost: 37%
Tlak: 1016 hPa
Oblačnost: Rahlo oblačno
Vidljivost: 10 km
Podrobnosti o oblakih: Rahlo oblačno 1829 m
2018/08/17 11:20 LOWK 171120Z VRB03KT 9999 FEW060 27/11 Q1016 NOSIG
 
LOWG - Graz (mil/Civ), Austria
Oddaljenost od postaje: SSV 100km
Podatki zajeti: 17/08/2018 13:20
Rahlo oblačno
Rahlo oblačno
 Veter iz smeri J
Veter: J 7 km/h
Temperatura: 26°C
Rosišče: 15°C
Vlažnost: 51%
Tlak: 1016 hPa
Oblačnost: Rahlo oblačno
Vidljivost: 10 km
Podrobnosti o oblakih: Rahlo oblačno 1829 m
2018/08/17 11:20 LOWG 171120Z 17004KT 110V230 9999 FEW060 26/15 Q1016 NOSIG
LOWZ - Zell Am See, Austria
Oddaljenost od postaje: SZ 211km
Podatki zajeti: 31/12/2016 17:00
Ni posodobljen
Jasno
Jasno
 Veter iz smeri spremenljiv
Veter: spremenljiv 4 km/h
Temperatura: -4°C
Rosišče: -7°C
Vlažnost: 80%
Tlak: 1031 hPa
Oblačnost: Jasno
2016/12/31 16:00 LOWZ 311600Z VRB02KT 50KM SKC M04/M07 Q1031
 
LOAN - Wr.neustadt East, Austria
Oddaljenost od postaje: SSV 212km
Podatki zajeti: 17/08/2018 13:00
Rahlo oblačno
Rahlo oblačno
 Veter iz smeri J
Veter: J 15 km/h
Oblačnost: Rahlo oblačno
Podrobnosti o oblakih: Rahlo oblačno 1524 m
2018/08/17 11:00 LOAN 171100Z 18008KT 45KM FEW050CU
LIPQ - Ronchi Legionari, Italy
Oddaljenost od postaje: JZ 35km
Podatki zajeti: 17/08/2018 12:50
Jasno
Jasno
 Veter iz smeri ZJZ
Veter: ZJZ 9 km/h
Temperatura: 30°C
Toplotni indeks: 30°C
Rosišče: 16°C
Vlažnost: 43%
Tlak: 1014 hPa
Stanje: Jasno
Vidljivost: večja od 10 km
2018/08/17 10:50 LIPQ 171050Z 24005KT 170V270 CAVOK 30/16 Q1014
 
LIVT - Trieste, Italy
Oddaljenost od postaje: ZJZ 109km
Podatki zajeti: 17/08/2018 12:55
Jasno
Jasno
 Veter iz smeri calm
Veter: Tiąina
Temperatura: 28°C
Toplotni indeks: 28°C
Rosišče: 17°C
Vlažnost: 51%
Tlak: 1013 hPa
Stanje: Jasno
Vidljivost: večja od 10 km
2018/08/17 10:55 LIVT 171055Z 00000KT CAVOK 28/17 Q1013 RMK SKC QUK 0 QUL 0 VIS MAR 20 KM VIS MIN 9999
LIVO - Tarvisio, Italy
Oddaljenost od postaje: SSZ 49km
Podatki zajeti: 17/08/2018 12:55
Rahlo oblačno
Rahlo oblačno
 Veter iz smeri VJV
Veter: VJV 7 km/h
Temperatura: 25°C
Rosišče: 13°C
Vlažnost: 47%
Tlak: 1017 hPa
Oblačnost: Rahlo oblačno
Vidljivost: 10 km
Podrobnosti o oblakih: Rahlo oblačno 1067 m
2018/08/17 10:55 LIVO 171055Z 11004KT 9999 FEW035 25/13 Q1017 RMK FEW VIS MIN 9999
 
LIPZ - Venezia/Tessera, Italy
Oddaljenost od postaje: ZJZ 217km
Podatki zajeti: 17/08/2018 12:50
Jasno
Jasno
 Veter iz smeri JJV
Veter: JJV 9 km/h
Temperatura: 28°C
Toplotni indeks: 28°C
Rosišče: 16°C
Vlažnost: 48%
Tlak: 1014 hPa
Stanje: Jasno
Vidljivost: večja od 10 km
2018/08/17 10:50 LIPZ 171050Z 15005KT 110V180 CAVOK 28/16 Q1014 NOSIG
LHSM - Balaton, Hungary
Oddaljenost od postaje: VSV 177km
Podatki zajeti: 17/08/2018 13:15
Delno oblačno
Delno oblačno
 Veter iz smeri SZ
Veter: SZ 2 km/h
Temperatura: 28°C
Toplotni indeks: 28°C
Rosišče: 17°C
Vlažnost: 51%
Tlak: 1016 hPa
Oblačnost: Delno oblačno
Vidljivost: 10 km
Podrobnosti o oblakih: Delno oblačno 1341 m
2018/08/17 11:15 LHSM 171115Z 32001KT 9999 SCT044 28/17 Q1016 NOSIG